Startpagina
METAR-TAF:

METAR-TAF

Vliegvelden :

Internationale luchthaven Koning Abdoel Aziz

Djedda, Saoedi-Arabië

breedte: 21-42N, lengte: 039-11E, hoogte: 15 m

Actueel weer

Dit bericht is 39 minuten geleden gemaakt, om 17:00 UTC
Wind 8 kt uit het westnoordwesten
Temperatuur 23°C
Vochtigheid 47%
Druk 1015 hPa
Zicht 10 km of meer
Weinig wolken op 4000 ft
Verspreide wolken op 8000 ft

METAR: OEJN 171700Z 30008KT 9999 FEW040 SCT080 23/11 Q1015 NOSIG

Tijdstip: 20:39 (17:39 UTC)

Verwachting

Dit bericht is 6 uur en het 39 minuten geleden gemaakt, om 11:00 UTC
Verwachting geldig van 17 om 12 UTC tot 18 om 18 UTC
Wind 8 kt uit het noordnoordwesten met uitschieters tot 18 kt
Zicht 10 km of meer
geen wolken onder 1500 m en geen cumulonimbus
Wijzigt naar
van 17 om 18 UTC tot 17 om 20 UTC
Wind 8 kt uit het noordnoordoosten

TAF: OEJN 171100Z 1712/1818 33008G18KT CAVOK BECMG 1718/1720 02008KT

Waarnemingen en weersverwachtingen van meer dan 4000 vliegvelden (METAR en TAF).

De beschikbare stations zijn de gele en rode punten op de kaart.

Ga met uw muis naar het station om de naam te zien.

Klik dan om waarnemingen en weersverwachtingen te zien.

kaart wijzigen: klik op de groene knoppen met een zwart kruis om in te zoomen, op de groene knop met een streepje om uit te zoomen of op de groene pijlen voor aangrenzende kaarten.


METAR-TAF: